Flight Track Log - Related Links

Times and Time Zones

All times are in EDT time to prevent confusion due to time zone crossing. See the N148CZ flight status page for this flight to view local times or setup timezone preferences in your user account.


Time Position Orientation Groundspeed Altitude Reporting Facility
EDT Latitude Longitude Course Direction KTS MPH feet Rate Location/Type
Tue 08:12:08 AM 40.6950 -73.4480 254° West 103 119 2,200  Level FlightAware ADS-B
Tue 08:12:26 AM 40.6930 -73.4590 257° West 106 122 2,500 1,091 Climbing FlightAware ADS-B
Tue 08:12:52 AM 40.6900 -73.4760 257° West 107 123 3,000 1,091 Climbing FlightAware ADS-B
Tue 08:13:21 AM 40.6860 -73.4940 254° West 109 125 3,500 982 Climbing FlightAware ADS-B
Tue 08:13:47 AM 40.6830 -73.5120 258° West 112 129 3,900 1,000 Climbing FlightAware ADS-B
Tue 08:14:03 AM 40.6810 -73.5220 255° West 113 130 4,200 818 Climbing FlightAware ADS-B
Tue 08:14:31 AM 40.6780 -73.5420 259° West 124 143 4,500 316 Climbing FlightAware ADS-B
Tue 08:15:00 AM 40.6730 -73.5640 253° West 147 169 4,500  Level FlightAware ADS-B
Tue 08:15:38 AM 40.6670 -73.5980 257° West 155 178 4,500  Level FlightAware ADS-B
Tue 08:16:09 AM 40.6620 -73.6290 258° West 158 182 4,500  Level FlightAware ADS-B
Tue 08:16:37 AM 40.6570 -73.6560 256° West 159 183 4,500  Level FlightAware ADS-B
Tue 08:17:05 AM 40.6510 -73.6820 253° West 159 183 4,500  Level FlightAware ADS-B
Tue 08:17:33 AM 40.6460 -73.7070 255° West 160 184 4,500  Level FlightAware ADS-B
Tue 08:18:00 AM 40.6410 -73.7330 256° West 160 184 4,500  Level FlightAware ADS-B
Tue 08:18:16 AM 40.6380 -73.7480 255° West 160 184 4,500  Level FlightAware ADS-B
Tue 08:18:41 AM 40.6320 -73.7720 252° West 159 183 4,500  Level FlightAware ADS-B
Tue 08:18:57 AM 40.6240 -73.7820 223° Southwest 161 185 4,500  Level FlightAware ADS-B
Tue 08:19:13 AM 40.6170 -73.7860 203° Southwest 162 186 4,500  Level FlightAware ADS-B
Tue 08:19:39 AM 40.5950 -73.7990 204° Southwest 161 185 4,500  Level FlightAware ADS-B
Tue 08:20:02 AM 40.5810 -73.8100 211° Southwest 161 185 4,500  Level FlightAware ADS-B
Tue 08:20:20 AM 40.5740 -73.8250 238° Southwest 160 184 4,500  Level FlightAware ADS-B
Tue 08:21:11 AM 40.5630 -73.8450 234° Southwest 160 184 4,500  Level FlightAware ADS-B
Tue 08:21:42 AM 40.5290 -73.8780 216° Southwest 161 185 4,500  Level FlightAware ADS-B
Tue 08:22:10 AM 40.5120 -73.8940 216° Southwest 161 185 4,500  Level FlightAware ADS-B
Tue 08:22:28 AM 40.5020 -73.9040 217° Southwest 161 185 4,500  Level FlightAware ADS-B
Tue 08:22:40 AM 40.4970 -73.9140 237° Southwest 159 183 4,500  Level FlightAware ADS-B
Tue 08:23:09 AM 40.4880 -73.9370 243° Southwest 161 185 4,500  Level FlightAware ADS-B
Tue 08:23:35 AM 40.4790 -73.9620 245° Southwest 160 184 4,500  Level FlightAware ADS-B
Tue 08:23:47 AM 40.4750 -73.9720 242° Southwest 161 185 4,500  Level FlightAware ADS-B
Tue 08:24:07 AM 40.4690 -73.9910 247° West 161 185 4,500  Level FlightAware ADS-B
Tue 08:24:35 AM 40.4600 -74.0150 244° Southwest 162 186 4,500  Level FlightAware ADS-B
Tue 08:25:04 AM 40.4500 -74.0410 243° Southwest 162 186 4,500  Level FlightAware ADS-B
Tue 08:26:28 AM 40.4360 -74.0780 244° Southwest 161 185 4,500  Level FlightAware ADS-B
Tue 08:26:43 AM 40.4180 -74.1270 244° Southwest 162 186 4,500  Level FlightAware ADS-B
Tue 08:27:12 AM 40.4080 -74.1530 243° Southwest 161 185 4,500  Level FlightAware ADS-B
Tue 08:27:38 AM 40.4000 -74.1740 243° Southwest 161 185 4,500  Level FlightAware ADS-B
Tue 08:27:50 AM 40.3950 -74.1870 243° Southwest 161 185 4,500  Level FlightAware ADS-B
Tue 08:28:18 AM 40.3860 -74.2120 245° Southwest 161 185 4,500  Level FlightAware ADS-B
Tue 08:28:47 AM 40.3770 -74.2370 245° Southwest 162 186 4,500  Level FlightAware ADS-B
Tue 08:29:15 AM 40.3670 -74.2620 242° Southwest 162 186 4,500  Level FlightAware ADS-B
Tue 08:29:43 AM 40.3580 -74.2870 245° Southwest 162 186 4,500  Level FlightAware ADS-B
Tue 08:30:10 AM 40.3490 -74.3110 244° Southwest 162 186 4,500  Level FlightAware ADS-B
Tue 08:30:22 AM 40.3447 -74.3214 242° Southwest 163 188 4,500  Level FlightAware ADS-B
Tue 08:30:38 AM 40.3391 -74.3361 243° Southwest 163 188 4,500  Level FlightAware ADS-B
Tue 08:30:59 AM 40.3323 -74.3541 244° Southwest 163 188 4,500  Level FlightAware ADS-B
Tue 08:31:18 AM 40.3260 -74.3710 244° Southwest 162 186 4,500  Level FlightAware ADS-B
Tue 08:31:35 AM 40.3204 -74.3857 243° Southwest 162 186 4,500  Level FlightAware ADS-B
Tue 08:31:52 AM 40.3147 -74.4010 244° Southwest 163 188 4,500  Level FlightAware ADS-B
Tue 08:32:12 AM 40.3081 -74.4185 244° Southwest 163 188 4,500  Level FlightAware ADS-B
Tue 08:32:32 AM 40.3014 -74.4361 243° Southwest 163 188 4,500  Level FlightAware ADS-B
Tue 08:32:47 AM 40.2963 -74.4498 244° Southwest 162 186 4,500  Level FlightAware ADS-B
Tue 08:33:03 AM 40.2909 -74.4638 243° Southwest 162 186 4,500  Level FlightAware ADS-B
Tue 08:33:19 AM 40.2859 -74.4771 244° Southwest 163 188 4,500  Level FlightAware ADS-B
Tue 08:33:34 AM 40.2806 -74.4909 243° Southwest 163 188 4,500  Level FlightAware ADS-B
Tue 08:33:50 AM 40.2754 -74.5047 244° Southwest 162 186 4,500  Level FlightAware ADS-B
Tue 08:34:07 AM 40.2698 -74.5195 244° Southwest 162 186 4,500  Level FlightAware ADS-B
Tue 08:34:22 AM 40.2648 -74.5328 244° Southwest 162 186 4,500  Level FlightAware ADS-B
Tue 08:34:39 AM 40.2590 -74.5481 244° Southwest 162 186 4,500  Level FlightAware ADS-B
Tue 08:34:44 AM 40.2578 -74.5521 249° West 162 186 4,500  Level FlightAware ADS-B
Tue 08:34:59 AM 40.2534 -74.5661 248° West 162 186 4,500  Level FlightAware ADS-B
Tue 08:35:16 AM 40.2488 -74.5810 248° West 162 186 4,500  Level FlightAware ADS-B
Tue 08:35:32 AM 40.2441 -74.5961 248° West 162 186 4,500  Level FlightAware ADS-B
Tue 08:35:49 AM 40.2393 -74.6114 248° West 162 186 4,500  Level FlightAware ADS-B
Tue 08:36:05 AM 40.2348 -74.6253 247° West 163 188 4,500 -182 Level FlightAware ADS-B
Tue 08:36:22 AM 40.2298 -74.6411 247° West 169 194 4,400 -529 Descending FlightAware ADS-B
Tue 08:36:39 AM 40.2246 -74.6578 248° West 167 192 4,200 -706 Descending FlightAware ADS-B
Tue 08:36:56 AM 40.2198 -74.6736 248° West 168 193 4,000 -750 Descending FlightAware ADS-B
Tue 08:37:11 AM 40.2154 -74.6882 248° West 169 194 3,800 -727 Descending FlightAware ADS-B
Tue 08:37:29 AM 40.2102 -74.7051 248° West 169 194 3,600 -706 Descending FlightAware ADS-B
Tue 08:37:45 AM 40.2052 -74.7202 247° West 169 194 3,400 -727 Descending FlightAware ADS-B
Tue 08:38:02 AM 40.1997 -74.7361 246° West 168 193 3,200 -686 Descending FlightAware ADS-B
Tue 08:38:20 AM 40.1940 -74.7520 245° Southwest 164 189 3,000 -545 Descending FlightAware ADS-B
Tue 08:38:35 AM 40.1890 -74.7653 244° Southwest 162 186 2,900 -387 Descending FlightAware ADS-B
Tue 08:38:51 AM 40.1836 -74.7793 243° Southwest 159 183 2,800 -375 Descending FlightAware ADS-B
Tue 08:39:07 AM 40.1784 -74.7927 243° Southwest 155 178 2,700 -188 Descending FlightAware ADS-B
Tue 08:39:23 AM 40.1736 -74.8058 244° Southwest 152 175 2,700 -194 Level FlightAware ADS-B
Tue 08:39:38 AM 40.1691 -74.8184 245° Southwest 150 173 2,600 -200 Descending FlightAware ADS-B
Tue 08:39:53 AM 40.1648 -74.8303 245° Southwest 149 171 2,600 -200 Level FlightAware ADS-B
Tue 08:40:08 AM 40.1602 -74.8429 244° Southwest 153 176 2,500 -581 Descending FlightAware ADS-B
Tue 08:40:24 AM 40.1553 -74.8565 245° Southwest 158 182 2,300 -563 Descending FlightAware ADS-B
Tue 08:40:40 AM 40.1501 -74.8706 244° Southwest 160 184 2,200 -480 Descending FlightAware ADS-B
Tue 08:40:49 AM 40.1473 -74.8782 244° Southwest 159 183 2,100 -632 Descending FlightAware ADS-B
Tue 08:40:59 AM 40.1443 -74.8873 247° West 159 183 2,000 -480 Descending FlightAware ADS-B
Tue 08:41:14 AM 40.1402 -74.9007 248° West 157 181 1,900 -643 Descending FlightAware ADS-B
Tue 08:41:27 AM 40.1368 -74.9111 247° West 147 169 1,700 -571 Descending FlightAware ADS-B
Tue 08:41:35 AM 40.1350 -74.9175 250° West 134 154 1,700 -571 Level FlightAware ADS-B
Tue 08:42:30 AM 40.1333 -74.9500 250° West 104 120 1,100 -522 Descending Philadelphia TRACON
Tue 08:43:30 AM 40.1000 -74.9833 217° Southwest 96 110 700 -400 Descending Philadelphia TRACON
Tue 08:45:00 AM 40.0819 -75.0106 197° South  Level Estimated

Login

Don't have an account? Register now (free) for customized features, flight alerts, and more!